Tiempo atmosférico en la estación meteorológica de Ayamonte, Huelva (2 m.)



Fecha
DESCASC
Temp. máxima en grados centígrados (hora)
DESCASC
Temp. mínima en grados centígrados (hora)
DESCASC
Temp. media en grados centígrados
DESCASC
Racha de viento máxima en m/sg (hora)
DESCASC
Velocidad máxima media en intervalos de 10 minutos(hora)
DESCASC
Precipitaciones diarias en mm
DESCASC
Precipitaciones de 00:00 a 06:00 en mm
DESCASC
Precipitaciones de 06:00 a 12:00 en mm
DESCASC
Precipitaciones de 12:00 a 18:00 en mm
DESCASC
Precipitaciones de 18:00 a 24:00 en mm
DESCASC
18-02-2018 17.5 (13:30) 10.1 (08:00) 13.8 6.11 (05:00) 3.33 (15:20) 0 0 0 0 0
17-02-2018 18.3 (14:00) 8 (08:30) 13.1 7.22 (02:00) 3.61 (14:30) 0 0 0 0 0
16-02-2018 18.9 (13:10) 8.3 (08:30) 13.6 6.94 (18:30) 3.61 (16:40) 0 0 0 0 0
15-02-2018 17.1 (14:10) 6.1 (00:00) 11.6 4.72 (14:30) 2.78 (15:40) 0 0 0 0 0
14-02-2018 15.9 (16:50) 3.7 (00:00) 9.8 5 (19:50) 3.33 (17:00) 0 0 0 0 0
13-02-2018 15 (15:20) 4.6 (00:00) 9.8 6.94 (17:30) 3.89 (15:50) 0 0 0 0 0
12-02-2018 17.2 (15:50) 7.9 (00:00) 12.6 11.67 (15:40) 5.56 (15:40) 0 0 0 0 0
11-02-2018 18.3 (15:40) 6.7 (00:00) 12.5 7.22 (02:40) 3.61 (10:20) 0 0 0 0 0
10-02-2018 16.4 (17:00) 5.5 (00:00) 10.9 9.72 (15:20) 4.17 (14:20) 0.1 0 0.1 0 0
09-02-2018 -- (--) -- (--) -- 5.28 (00:20) 2.78 (02:30) 0.7 0 0.7 0 0
08-02-2018 14.6 (15:50) 3.3 (00:00) 9 7.22 (18:40) 2.78 (18:10) 0 0 0 0 0
07-02-2018 13.1 (14:00) 3.5 (00:00) 8.3 8.89 (13:10) 4.44 (13:10) 0 0 0 0 0
06-02-2018 13.2 (17:00) 4.9 (00:00) 9 10.56 (10:40) 5.28 (11:50) 0 0 0 0 0
05-02-2018 14.8 (14:50) 4.9 (00:00) 9.9 8.89 (18:30) 3.61 (18:20) 0 0 0 0 0
04-02-2018 13.2 (15:30) 6.9 (00:00) 10 11.67 (09:30) 4.17 (11:20) 0.5 0.4 0 0.1 0
03-02-2018 15.6 (16:10) 5 (00:00) 10.3 7.78 (15:10) 3.06 (07:00) 0 0 0 0 0
02-02-2018 15.1 (15:20) 5.1 (00:00) 10.1 10.83 (11:10) 4.72 (10:40) 0 0 0 0 0
01-02-2018 16.4 (16:50) 8.6 (00:00) 12.5 11.11 (15:00) 5.28 (21:10) 0 0 0 0 0
31-01-2018 19.5 (16:50) 9.6 (00:00) 14.6 6.39 (02:40) 3.33 (03:00) 0 0 0 0 0
30-01-2018 17.9 (15:00) 9.1 (00:00) 13.5 8.61 (12:30) 4.17 (12:20) 0 0 0 0 0
29-01-2018 18.1 (16:40) 9.3 (00:00) 13.7 10.83 (12:20) 5.56 (18:30) 0 0 0 0 0
28-01-2018 16.5 (15:40) 5.9 (00:00) 11.2 11.94 (16:00) 6.11 (20:10) 0 0 0 0 0
27-01-2018 15.9 (15:20) 6.3 (00:00) 11.1 8.61 (02:20) 3.89 (00:10) 0 0 0 0 0
26-01-2018 16.1 (15:50) 7.7 (00:00) 11.9 11.39 (02:20) 5.56 (02:30) 0 0 0 0 0
25-01-2018 14.4 (15:20) 7 (00:00) 10.7 10 (16:20) 3.33 (16:30) 0.6 0 0 0.5 0.1
24-01-2018 17.4 (15:30) 7.5 (00:00) 12.4 6.67 (00:10) 2.78 (23:59) 0 0 0 0 0
23-01-2018 14.8 (15:50) 8.3 (00:00) 11.6 8.89 (06:10) 4.17 (08:40) 0 0 0 0 0
22-01-2018 14.4 (13:50) 10.1 (00:00) 12.3 10 (09:30) 5.28 (09:30) 0 0 0 0 0

Gráficas

Temp. máximas Temp. mínimas Temp. medias Precipitaciones Rachas de viento máximas Velocidades máximas media en intervalos de 10 minutos

Datos horarios

Fecha y hora oficial Temperatura (ºC) Velocidad del viento (km/h) Dirección del viento Racha (km/h) Dirección de racha Precipitación (mm) Presión (hPa) Tendencia (hPa) Humedad (%)
2018-02-20 23:00:00 13.5 6 Noroeste 14 Noroeste 0 1013.1 -0.3 59
2018-02-20 22:00:00 11.9 5 Noroeste 9 Noroeste 0 1013.3 0 72
2018-02-20 21:00:00 12.6 3 Noroeste 9 Oeste 0 1013.2 -0.2 73
2018-02-20 20:00:00 13.9 2 Oeste 19 Sudoeste 0 1013.4 -0.4 72
2018-02-20 19:00:00 15.4 12 Sudoeste 22 Oeste 0 1013.3 -0.8 58
2018-02-20 18:00:00 17.5 9 Sudoeste 20 Sudoeste 0 1013.4 -1.4 53
2018-02-20 17:00:00 17.6 11 Sudoeste 18 Sudoeste 0 1013.8 -1.8 50
2018-02-20 16:00:00 19 9 Sudoeste 18 Sudoeste 0 1014.1 -2.5 46
2018-02-20 15:00:00 19.9 9 Sur 17 Sur 0 1014.8 -2 42
2018-02-20 14:00:00 19.9 10 Sudoeste 15 Sur 0 1015.6 -1.8 42
2018-02-20 13:00:00 19.5 4 Sudeste 14 Este 0 1016.6 -0.9 42
2018-02-20 12:00:00 17.1 3 Norte 15 Noroeste 0 1016.8 -0.3 51
2018-02-20 11:00:00 14.3 5 Norte 19 Norte 0 1017.4 1 59
2018-02-20 10:00:00 11.2 6 Norte 16 Noroeste 0 1017.5 1.4 67
2018-02-20 09:00:00 9.2 4 Norte 15 Noroeste 0 1017.1 0.9 73
2018-02-20 08:00:00 8.7 4 Noroeste 16 Norte 0 1016.4 0.3 73
2018-02-20 07:00:00 9.1 6 Norte 14 Norte 0 1016.1 -0.1 71
2018-02-20 06:00:00 9.1 4 Norte 13 Noroeste 0 1016.2 -0.1 71
2018-02-20 05:00:00 8.4 2 Nordeste 11 Noroeste 0 1016.1 -0.2 75
2018-02-20 04:00:00 9.1 4 Noroeste 9 Noroeste 0 1016.2 0 72
2018-02-20 03:00:00 9.2 0 Calma 12 Noroeste 0 1016.3 -0.1 71
2018-02-20 02:00:00 10.2 5 Noroeste 12 Noroeste 0 1016.3 -0.2 71
2018-02-20 01:00:00 9.8 6 Norte 14 Noroeste 0 1016.2 -0.2 82
2018-02-20 00:00:00 8 0 Calma 4 Norte 0 1016.4 0.1 94
2018-02-19 23:00:00 9.5 0 Calma 4 Nordeste 0 1016.5 0.4 91
2018-02-19 22:00:00 11.2 0 Calma 9 Sudoeste 0 1016.4 0.3 85
2018-02-19 21:00:00 11.8 6 Sudoeste 11 Oeste 0 1016.3 0.5 77
2018-02-19 20:00:00 12.3 5 Sudoeste 12 Sudoeste 0 1016.1 0.3 68
2018-02-19 19:00:00 14.2 8 Sudoeste 19 Sudoeste 0 1016.1 0.1 57
2018-02-19 18:00:00 15.1 10 Sudoeste 22 Sudoeste 0 1015.8 -0.3 50
2018-02-19 17:00:00 15.9 12 Sudoeste 18 Sudoeste 0 1015.8 -1 44
2018-02-19 16:00:00 16 12 Sur 21 Sur 0 1016 -1.5 38
2018-02-19 15:00:00 17.3 11 Sur 18 Sur 0 1016.1 -1.9 37
2018-02-19 14:00:00 18.1 8 Sur 18 Sur 0 1016.8 -1.1 38
2018-02-19 13:00:00 17.2 3 Nordeste 13 Norte 0 1017.5 -0.2 41
2018-02-19 12:00:00 15.1 5 Norte 12 Norte 0 1018 0.4 48
2018-02-19 11:00:00 12.8 4 Noroeste 15 Norte 0 1017.9 0.6 53
2018-02-19 10:00:00 11.4 6 Norte 17 Norte 0 1017.7 0.8 56
2018-02-19 09:00:00 9.4 5 Norte 13 Noroeste 0 1017.6 0.9 62
2018-02-19 08:00:00 8.7 3 Norte 14 Noroeste 0 1017.3 0.6 67
2018-02-19 07:00:00 8.8 0 Calma 9 Noroeste 0 1016.9 0.2 74
2018-02-19 06:00:00 8.9 2 Noroeste 14 Noroeste 0 1016.7 -0.4 77
2018-02-19 05:00:00 9.3 4 Norte 12 Norte 0 1016.7 -0.6 85
2018-02-19 04:00:00 8.8 0 Calma 6 Norte 0 1016.7 -1.2 99
2018-02-19 03:00:00 9.6 3 Norte 7 Norte 0 1017.1 -0.1 99
2018-02-19 02:00:00 9.8 0 Calma 8 Nordeste 0 1017.3 -0.4 99
2018-02-19 01:00:00 10.5 4 Nordeste 11 Este 0 1017.9 0.1 99
2018-02-19 00:00:00 10.9 0 Calma 5 Sudoeste 0 1017.2 -0.6 98
2018-02-18 23:00:00 12.3 2 Oeste 6 Sudoeste 0 1017.7 -0.3 98
2018-02-18 22:00:00 11.9 3 Sudoeste 6 Sudoeste 0 1017.8 0.1 97
2018-02-18 21:00:00 12.1 3 Sudoeste 6 Sudoeste 0 1017.8 0 96
2018-02-18 20:00:00 12.2 4 Sur 7 Oeste 0 1018 0.1 94
2018-02-18 19:00:00 13.1 6 Oeste 13 Sudoeste 0 1017.7 -0.3 92
2018-02-18 18:00:00 13.9 8 Sudoeste 16 Sudoeste 0 1017.8 -0.7 85
2018-02-18 17:00:00 14.8 10 Sudoeste 16 Sur 0 1017.9 -1.2 78
2018-02-18 16:00:00 16.6 8 Sur 19 Sudeste 0 1018 -2 70
2018-02-18 15:00:00 15.8 10 Sudeste 20 Sur 0 1018.5 -1.7 65
2018-02-18 14:00:00 17 8 Sudeste 17 Sur 0 1019.1 -1.1 61
2018-02-18 13:00:00 16.2 8 Sudeste 17 Sudeste 0 1020 -0.4 63
2018-02-18 12:00:00 15.9 8 Este 14 Este 0 1020.2 0.3 66
2018-02-18 11:00:00 13.6 4 Nordeste 16 Noroeste 0 1020.2 0.7 79
2018-02-18 10:00:00 11.5 4 Norte 17 Norte 0 1020.4 0.9 90
2018-02-18 09:00:00 10.3 4 Norte 13 Norte 0 1019.9 0.3 97
2018-02-18 08:00:00 10.2 5 Noroeste 14 Norte 0 1019.5 -0.2 97
2018-02-18 07:00:00 10.7 5 Norte 16 Noroeste 0 1019.5 -0.6 96
2018-02-18 06:00:00 10.9 6 Norte 20 Norte 0 1019.6 -0.8 96
2018-02-18 05:00:00 11.2 9 Norte 22 Noroeste 0 1019.7 -1 96
2018-02-18 04:00:00 11.5 5 Norte 17 Norte 0 1020.1 -0.9 96
2018-02-18 03:00:00 11.9 6 Noroeste 21 Noroeste 0 1020.4 -0.8 95
2018-02-18 02:00:00 12 6 Noroeste 19 Norte 0 1020.7 -0.7 95
2018-02-18 01:00:00 12.2 5 Norte 14 Noroeste 0 1021 -0.4 95
2018-02-18 00:00:00 11.4 3 Noroeste 9 Norte 0 1021.2 -0.2 95
2018-02-17 23:00:00 10.9 2 Oeste 5 Noroeste 0 1021.4 0 89
2018-02-17 22:00:00 11.6 3 Noroeste 7 Oeste 0 1021.4 0.1 86
2018-02-17 21:00:00 12.4 4 Oeste 12 Oeste 0 1021.4 0.3 83
2018-02-17 20:00:00 13 7 Oeste 16 Oeste 0 1021.4 0.2 80
2018-02-17 19:00:00 13.7 8 Oeste 18 Sudoeste 0 1021.3 -0.1 74
2018-02-17 18:00:00 15 10 Sudoeste 20 Oeste 0 1021.1 -0.6 70
2018-02-17 17:00:00 16.2 10 Sudoeste 20 Sudoeste 0 1021.2 -0.9 68
2018-02-17 16:00:00 16.3 10 Sudoeste 20 Sudoeste 0 1021.4 -1.3 63
2018-02-17 15:00:00 16.5 8 Sur 21 Sudoeste 0 1021.7 -1.6 64
2018-02-17 14:00:00 18.1 5 Norte 19 Norte 0 1022.1 -1.4 58
2018-02-17 13:00:00 16.6 6 Norte 17 Noroeste 0 1022.7 -0.8 65
2018-02-17 12:00:00 14.6 5 Norte 17 Nordeste 0 1023.3 0.1 73
2018-02-17 11:00:00 12.1 3 Norte 13 Norte 0 1023.5 0.7 85
2018-02-17 10:00:00 10 5 Norte 14 Norte 0 1023.5 1 94
2018-02-17 09:00:00 8.6 4 Norte 14 Noroeste 0 1023.2 1.1 99
2018-02-17 08:00:00 8.3 4 Noroeste 14 Noroeste 0 1022.8 1 98
2018-02-17 07:00:00 8.6 2 Norte 19 Norte 0 1022.5 0.3 94
2018-02-17 06:00:00 9.4 8 Noroeste 19 Noroeste 0 1022.1 -0.1 93
2018-02-17 05:00:00 9.8 8 Noroeste 20 Norte 0 1021.8 -0.6 92
2018-02-17 04:00:00 9.9 6 Noroeste 26 Norte 0 1022.2 -0.7 93
2018-02-17 03:00:00 10.4 10 Noroeste 24 Noroeste 0 1022.2 -0.7 93
2018-02-17 02:00:00 10.7 12 Noroeste 26 Norte 0 1022.4 -0.3 93
2018-02-17 01:00:00 10.9 8 Noroeste 20 Norte 0 1022.9 0.4 91
2018-02-17 00:00:00 11.4 8 Noroeste 19 Norte 0 1022.9 1 88
2018-02-16 23:00:00 11.9 10 Noroeste 21 Norte 0 1022.7 1.3 88
2018-02-16 22:00:00 11.3 5 Noroeste 13 Noroeste 0 1022.5 1.2 94
2018-02-16 21:00:00 11.6 5 Noroeste 9 Noroeste 0 1021.9 0.7 92
2018-02-16 20:00:00 12.9 6 Sudoeste 22 Sudoeste 0 1021.4 0.1 89
2018-02-16 19:00:00 13.9 12 Sudoeste 25 Sudoeste 0 1021.3 0.1 86
2018-02-16 18:00:00 15.9 11 Sudoeste 22 Sudoeste 0 1021.2 -0.3 75
2018-02-16 17:00:00 17.4 13 Sudoeste 20 Sudoeste 0 1021.3 -1 65
2018-02-16 16:00:00 17.7 11 Sudoeste 17 Sudoeste 0 1021.2 -1.7 62
2018-02-16 15:00:00 17 10 Sudoeste 17 Sudoeste 0 1021.5 -1.8 60
2018-02-16 14:00:00 17 10 Sudoeste 17 Sur 0 1022.3 -1.1 58
2018-02-16 13:00:00 18.6 6 Sudeste 14 Sudeste 0 1022.9 -0.5 56
2018-02-16 12:00:00 16.8 4 Este 13 Nordeste 0 1023.3 0.3 65
2018-02-16 11:00:00 14.1 2 Nordeste 8 Noroeste 0 1023.4 0.8 78
2018-02-16 10:00:00 10.6 4 Norte 12 Norte 0 1023.4 1 92
2018-02-16 09:00:00 8.4 2 Nordeste 8 Norte 0 1023 0.8 97
2018-02-16 08:00:00 8.8 2 Norte 11 Norte 0 1022.6 0.3 95
2018-02-16 07:00:00 9.2 2 Norte 12 Norte 0 1022.4 -0.4 93
2018-02-16 06:00:00 9.8 4 Norte 15 Norte 0 1022.2 -0.6 91
2018-02-16 05:00:00 10 3 Norte 10 Norte 0 1022.3 -0.8 91
2018-02-16 04:00:00 10.3 2 Norte 15 Noroeste 0 1022.8 -0.5 88
2018-02-16 03:00:00 10.9 6 Norte 17 Norte 0 1022.8 -0.9 86
2018-02-16 02:00:00 11.1 6 Norte 16 Noroeste 0 1023.1 -0.8 85
2018-02-16 01:00:00 10.3 4 Norte 12 Noroeste 0 1023.3 -0.6 88
2018-02-16 00:00:00 9.2 4 Noroeste 11 Norte 0 1023.7 0.2 92
2018-02-15 23:00:00 9.7 5 Noroeste 10 Noroeste 0 1023.9 0.4 91
2018-02-15 22:00:00 10.4 5 Noroeste 11 Noroeste 0 1023.9 0.5 87
2018-02-15 21:00:00 11.2 5 Oeste 11 Oeste 0 1023.5 0.2 85
2018-02-15 20:00:00 12 4 Oeste 9 Oeste 0 1023.5 -0.1 80
2018-02-15 19:00:00 13.4 5 Oeste 14 Sudoeste 0 1023.4 -0.7 77
2018-02-15 18:00:00 15.2 8 Sudoeste 15 Sudoeste 0 1023.3 -1.1 70
2018-02-15 17:00:00 15.8 9 Sudoeste 37 Sudoeste 0 1023.6 -1.5 63
2018-02-15 16:00:00 16.5 9 Sudoeste 14 Sudoeste 0 1024.1 -1.6 59
2018-02-15 15:00:00 16 9 Sudoeste 17 Sudoeste 0 1024.4 -1.7 56
2018-02-15 14:00:00 17 4 Sudeste 14 Sudeste 0 1025.1 -0.6 53
2018-02-15 13:00:00 16.3 5 Sudeste 14 Sudeste 0 1025.7 0.6 58
2018-02-15 12:00:00 15.8 5 Sudeste 11 Este 0 1026.1 1.4 64
2018-02-15 11:00:00 13.4 3 Nordeste 9 Noroeste 0 1025.7 1.4 77
2018-02-15 10:00:00 10.9 3 Norte 13 Norte 0 1025.1 0.7 89
2018-02-15 09:00:00 8.3 8 Noroeste 16 Noroeste 0 1024.7 0.5 99
2018-02-15 08:00:00 7.9 6 Noroeste 12 Noroeste 0 1024.3 0.1 99
2018-02-15 07:00:00 7.4 3 Noroeste 10 Noroeste 0 1024.4 -0.1 99
2018-02-15 06:00:00 6.9 0 Calma 6 Norte 0 1024.2 -0.1 99
2018-02-15 05:00:00 6.6 4 Noroeste 8 Norte 0 1024.2 0 99
2018-02-15 04:00:00 6.6 0 Calma 6 Noroeste 0 1024.5 0.3 99
2018-02-15 03:00:00 6.9 2 Noroeste 6 Noroeste 0 1024.3 0.3 98
2018-02-15 02:00:00 6.9 0 Calma 6 Norte 0 1024.2 0.1 97
2018-02-15 01:00:00 7.6 0 Calma 4 Noroeste 0 1024.2 0.6 94
2018-02-15 00:00:00 8.4 3 Norte 6 Noroeste 0 1024 0.6 92
2018-02-14 23:00:00 9.4 3 Oeste 6 Oeste 0 1024.1 0.9 87
2018-02-14 22:00:00 10.7 2 Oeste 14 Sudoeste 0 1023.6 0.3 83
2018-02-14 21:00:00 11.8 9 Oeste 17 Oeste 0 1023.4 0.2 80
2018-02-14 20:00:00 12.5 9 Sudoeste 18 Sudoeste 0 1023.2 0.3 78
2018-02-14 19:00:00 13.8 8 Sur 14 Sur 0 1023.3 0.2 68
2018-02-14 18:00:00 15.1 8 Sudoeste 18 Sur 0 1023.2 -0.1 65
2018-02-14 17:00:00 15 12 Sudoeste 17 Sur 0 1022.9 -0.6 68
2018-02-14 16:00:00 14.5 7 Sur 14 Sur 0 1023.1 -1 72
2018-02-14 15:00:00 14.4 6 Sudeste 13 Sur 0 1023.3 -1.4 70
2018-02-14 14:00:00 14.7 6 Sur 16 Sur 0 1023.5 -0.8 68
2018-02-14 13:00:00 13.2 4 Sudeste 10 Este 0 1024.1 0 77
2018-02-14 12:00:00 11.8 3 Este 8 Este 0 1024.7 1.5 80
2018-02-14 11:00:00 10.1 4 Nordeste 11 Este 0 1024.3 1.7 86
2018-02-14 10:00:00 8.1 0 Calma 5 Noroeste 0 1024.1 1.4 95
2018-02-14 09:00:00 6.9 2 Este 6 Este 0 1023.2 0.5 99
2018-02-14 08:00:00 5.1 0 Calma 3 Noroeste 0 1022.6 0.1 99
2018-02-14 07:00:00 5.6 0 Calma 2 Este 0 1022.7 0.1 99
2018-02-14 06:00:00 4.7 0 Calma 4 Nordeste 0 1022.7 0 99
2018-02-14 05:00:00 4.4 0 Calma 4 Norte 0 1022.5 -0.7 98
2018-02-14 04:00:00 5.3 0 Calma 8 Noroeste 0 1022.6 -0.8 96
2018-02-14 03:00:00 5.8 2 Oeste 7 Noroeste 0 1022.7 -0.7 92
2018-02-14 02:00:00 6.9 0 Calma 6 Norte 0 1023.2 0.1 88
2018-02-14 01:00:00 7.8 0 Calma 10 Norte 0 1023.4 0.3 86
2018-02-14 00:00:00 7.6 0 Calma 12 Noroeste 0 1023.4 0.7 89
2018-02-13 23:00:00 8 3 Noroeste 10 Norte 0 1023.1 0.9 88
2018-02-13 22:00:00 8.8 3 Noroeste 11 Noroeste 0 1023.1 1 86
2018-02-13 21:00:00 10.3 3 Noroeste 13 Oeste 0 1022.7 0.7 78
2018-02-13 20:00:00 11.4 9 Oeste 23 Oeste 0 1022.2 -0.2 74
2018-02-13 19:00:00 12.2 12 Sudoeste 24 Sudoeste 0 1022.1 -0.8 72
2018-02-13 18:00:00 13.4 13 Sudoeste 25 Sudoeste 0 1022 -1.2 65
2018-02-13 17:00:00 13.9 14 Sudoeste 22 Sudoeste 0 1022.4 -1.3 63
2018-02-13 16:00:00 14.6 13 Sudoeste 24 Sudoeste 0 1022.9 -1.8 58
2018-02-13 15:00:00 14.1 12 Sudoeste 20 Sur 0 1023.2 -2.1 58
2018-02-13 14:00:00 14.1 11 Sudoeste 18 Sudoeste 0 1023.7 -1.5 58
2018-02-13 13:00:00 14.1 3 Noroeste 15 Norte 0 1024.7 -0.1 57
2018-02-13 12:00:00 12.7 5 Norte 14 Norte 0 1025.3 0.9 62
2018-02-13 11:00:00 9.9 3 Noroeste 8 Noroeste 0 1025.2 1.4 70
2018-02-13 10:00:00 8.5 3 Norte 11 Norte 0 1024.8 1.8 82
2018-02-13 09:00:00 5.4 0 Calma 9 Norte 0 1024.4 1.6 92
2018-02-13 08:00:00 5.1 3 Nordeste 14 Norte 0 1023.8 0.5 89
2018-02-13 07:00:00 6 7 Norte 13 Norte 0 1023 -0.3 89
2018-02-13 06:00:00 5.6 4 Norte 10 Noroeste 0 1022.8 -0.8 86
2018-02-13 05:00:00 6.6 6 Noroeste 17 Noroeste 0 1023.3 -0.3 82
2018-02-13 04:00:00 7.5 7 Noroeste 20 Norte 0 1023.3 -0.3 79
2018-02-13 03:00:00 8 10 Noroeste 20 Norte 0 1023.6 0 77
2018-02-13 02:00:00 8.4 9 Noroeste 20 Norte 0 1023.6 -0.1 73
2018-02-13 01:00:00 8.1 5 Noroeste 14 Noroeste 0 1023.6 0.4 67
2018-02-13 00:00:00 9.2 6 Noroeste 19 Noroeste 0 1023.6 1 58
2018-02-12 23:00:00 9.4 8 Noroeste 14 Norte 0 1023.7 1.5 56
2018-02-12 22:00:00 8.6 4 Noroeste 9 Noroeste 0 1023.2 1.4 52
2018-02-12 21:00:00 9.9 5 Noroeste 21 Noroeste 0 1022.6 1.2 47
2018-02-12 20:00:00 11.7 4 Noroeste 13 Oeste 0 1022.2 1.2 42
2018-02-12 19:00:00 14 7 Noroeste 20 Noroeste 0 1021.8 0.6 37
2018-02-12 18:00:00 15.6 11 Noroeste 29 Noroeste 0 1021.4 0 34
2018-02-12 17:00:00 16.4 18 Noroeste 40 Noroeste 0 1021 -0.9 33
2018-02-12 16:00:00 16.6 16 Noroeste 42 Noroeste 0 1021.2 -1.5 34
2018-02-12 15:00:00 16.6 16 Noroeste 41 Noroeste 0 1021.4 -1.6 36
2018-02-12 14:00:00 16.2 14 Noroeste 33 Noroeste 0 1021.9 -0.8 41
2018-02-12 13:00:00 15.9 16 Noroeste 35 Norte 0 1022.7 0.7 48
2018-02-12 12:00:00 15.3 14 Noroeste 31 Norte 0 1023 1.4 60
2018-02-12 11:00:00 14 6 Oeste 17 Oeste 0 1022.7 1 85
2018-02-12 10:00:00 12.9 8 Oeste 18 Oeste 0 1022 0.5 91
2018-02-12 09:00:00 12.2 6 Sudoeste 12 Oeste 0 1021.6 -0.4 94
2018-02-12 08:00:00 11.2 6 Oeste 12 Oeste 0 1021.7 -0.4 94
2018-02-12 07:00:00 10.6 5 Sudoeste 10 Oeste 0 1021.5 -0.8 89
2018-02-12 06:00:00 11.6 7 Oeste 18 Oeste 0 1022 -0.7 90
2018-02-12 05:00:00 10.8 0 Calma 9 Oeste 0 1022.1 -1 88
2018-02-12 04:00:00 12.3 4 Noroeste 11 Oeste 0 1022.3 -1 88
2018-02-12 03:00:00 12.3 3 Oeste 15 Oeste 0 1022.7 -0.7 89
2018-02-12 02:00:00 13.1 8 Oeste 18 Oeste 0 1023.1 -0.7 89
2018-02-12 01:00:00 12.6 4 Oeste 7 Oeste 0 1023.3 -0.3 89
2018-02-12 00:00:00 12.7 4 Oeste 8 Noroeste 0 1023.4 0.1 89
2018-02-11 23:00:00 12.9 3 Noroeste 8 Noroeste 0 1023.8 0.4 87
2018-02-11 22:00:00 14 2 Norte 8 Noroeste 0 1023.6 0.6 83
2018-02-11 21:00:00 14.9 0 Calma 15 Norte 0 1023.3 0.4 79
2018-02-11 20:00:00 14.8 4 Noroeste 10 Sudoeste 0 1023.4 0.5 82
2018-02-11 19:00:00 14.1 7 Sudoeste 21 Sudoeste 0 1023 -0.4 83
2018-02-11 18:00:00 14.6 11 Sudoeste 22 Sudoeste 0 1022.9 -0.9 77
2018-02-11 17:00:00 15.9 6 Oeste 23 Noroeste 0 1022.9 -1.8 68
2018-02-11 16:00:00 17 10 Noroeste 23 Noroeste 0 1023.4 -2 64
2018-02-11 15:00:00 17.2 6 Noroeste 20 Norte 0 1023.8 -2.2 64
2018-02-11 14:00:00 15.3 7 Noroeste 22 Noroeste 0 1024.7 -1.2 68
2018-02-11 13:00:00 14.7 7 Norte 20 Noroeste 0 1025.4 -0.2 66
2018-02-11 12:00:00 13.4 6 Norte 21 Noroeste 0 1026 1 70
2018-02-11 11:00:00 11 10 Noroeste 23 Noroeste 0 1025.9 1.3 76
2018-02-11 10:00:00 9.1 9 Noroeste 21 Noroeste 0 1025.6 1.3 86
2018-02-11 09:00:00 7.3 9 Noroeste 16 Noroeste 0 1025 1.2 92
2018-02-11 08:00:00 6.9 8 Noroeste 17 Noroeste 0 1024.6 1 92
2018-02-11 07:00:00 6.9 7 Noroeste 24 Noroeste 0 1024.3 0.9 89
2018-02-11 06:00:00 7.4 10 Noroeste 21 Noroeste 0 1023.8 0.1 88
2018-02-11 05:00:00 7.6 9 Noroeste 23 Noroeste 0 1023.6 -0.3 85
2018-02-11 04:00:00 7.6 6 Noroeste 22 Noroeste 0 1023.4 -0.4 80
2018-02-11 03:00:00 8.4 12 Noroeste 26 Noroeste 0 1023.7 0.2 76
2018-02-11 02:00:00 8.6 8 Noroeste 23 Norte 0 1023.9 0.7 72
2018-02-11 01:00:00 9.3 8 Noroeste 20 Noroeste 0 1023.8 0.2 68
2018-02-11 00:00:00 9.6 9 Norte 20 Noroeste 0 1023.5 0.6 62
2018-02-10 23:00:00 10.5 9 Noroeste 19 Noroeste 0 1023.2 1.2 56
2018-02-10 22:00:00 10.7 3 Norte 14 Norte 0 1023.6 2.3 52
2018-02-10 21:00:00 11.7 2 Norte 18 Noroeste 0 1022.9 2.1 48
2018-02-10 20:00:00 12.5 9 Noroeste 22 Norte 0 1022 0.9 46
2018-02-10 19:00:00 13.7 10 Noroeste 28 Noroeste 0 1021.3 -0.2 43
2018-02-10 18:00:00 15.2 7 Norte 26 Noroeste 0 1020.8 -1.1 42
2018-02-10 17:00:00 16.1 5 Norte 28 Noroeste 0 1021.1 -1.9 43
2018-02-10 16:00:00 15.3 9 Norte 35 Noroeste 0 1021.5 -1.9 46
2018-02-10 15:00:00 14.4 12 Norte 31 Noroeste 0 1021.9 -2.3 50
2018-02-10 14:00:00 13.3 11 Noroeste 26 Noroeste 0 1023 -0.7 59
2018-02-10 13:00:00 11.9 10 Noroeste 32 Noroeste 0 1023.4 -0.1 70
2018-02-10 12:00:00 10.4 8 Noroeste 22 Noroeste 0 1024.2 1.1 78
2018-02-10 11:00:00 9.5 9 Norte 23 Norte 0 1023.7 1.2 85
2018-02-10 10:00:00 8.4 6 Noroeste 21 Noroeste 0 1023.5 1.3 92
2018-02-10 09:00:00 7.9 7 Noroeste 32 Noroeste 0.1 1023.1 0.9 97
2018-02-10 08:00:00 7.8 4 Noroeste 18 Noroeste 0 1022.5 0.5 97
2018-02-10 07:00:00 8.3 8 Noroeste 19 Norte 0 1022.2 -0.3 97
2018-02-10 06:00:00 8.3 5 Norte 17 Norte 0 1022.2 -0.3 97
2018-02-10 05:00:00 8.1 4 Noroeste 9 Noroeste 0 1022 -0.6 99
2018-02-10 04:00:00 5.9 0 Calma 6 Norte 0 1022.5 -0.5 98
2018-02-10 03:00:00 7.2 0 Calma 12 Norte 0 1022.5 -0.6 97
2018-02-10 02:00:00 7.8 4 Noroeste 12 Norte 0 1022.6 -0.4 96
2018-02-10 01:00:00 7.5 3 Noroeste 12 Noroeste 0 1023 -0.1 94
2018-02-10 00:00:00 7.9 2 Norte 15 Noroeste 0 1023.1 0.2 92
2018-02-09 23:00:00 8.2 5 Norte 12 Norte 0 1023 0.5 92
2018-02-09 22:00:00 8.7 0 Calma 17 Noroeste 0 1023.1 1.4 86
2018-02-09 21:00:00 10.2 5 Norte 16 Norte 0 1022.9 1.6 89
2018-02-09 20:00:00 10.2 3 Noroeste 8 Noroeste 0 1022.5 1.4 96
2018-02-09 19:00:00 10.5 0 Calma 4 Norte 0 1021.7 1.1 94
2018-02-09 18:00:00 -- 0 Calma 4 Norte 0 1021.3 0.1 91
2018-02-09 17:00:00 10.3 0 Calma 7 Norte 0 1021.1 -1.1 91
2018-02-09 16:00:00 9.9 0 Calma 8 Este 0 1020.6 -1.6 91
2018-02-09 15:00:00 9.3 0 Calma 5 Sur 0 1021.2 -1.7 89
2018-02-09 14:00:00 8.8 0 Calma 6 Este 0 1022.2 -0.3 89
2018-02-09 13:00:00 8.1 3 Este 8 Nordeste 0 1022.2 0 88
2018-02-09 12:00:00 8.5 3 Nordeste 8 Nordeste 0 1022.9 1.3 79
2018-02-09 11:00:00 7.3 3 Norte 9 Norte 0.1 1022.5 1.3 85
2018-02-09 10:00:00 6.7 0 Calma 10 Noroeste 0.6 1022.2 0.9 80
2018-02-09 09:00:00 6.8 4 Noroeste 8 Norte 0 1021.6 0.4 66
2018-02-09 08:00:00 6.6 4 Norte 10 Noroeste 0 1021.2 0 64
2018-02-09 07:00:00 4.6 0 Calma 15 Norte 0 1021.3 -0.3 65
2018-02-09 06:00:00 5.8 7 Noroeste 14 Noroeste 0 1021.2 -0.6 61
2018-02-09 05:00:00 6 6 Norte 13 Norte 0 1021.2 -0.6 59
2018-02-09 04:00:00 5.1 4 Norte 14 Noroeste 0 1021.6 -0.1 58
2018-02-09 03:00:00 5.1 3 Norte 19 Noroeste 0 1021.8 0.1 56
2018-02-09 02:00:00 5.8 6 Norte 15 Norte 0 1021.8 0.5 56
2018-02-09 01:00:00 5.5 4 Noroeste 19 Norte 0 1021.7 0.6 52
2018-02-09 00:00:00 6.3 4 Noroeste 17 Norte 0 1021.7 1.4 50
2018-02-08 23:00:00 7.5 8 Noroeste 20 Norte 0 1021.3 1.5 46
2018-02-08 22:00:00 7.9 3 Norte 14 Norte 0 1021.1 2 43
2018-02-08 21:00:00 8.7 4 Norte 18 Norte 0 1020.3 2 42
2018-02-08 20:00:00 9.7 9 Noroeste 19 Norte 0 1019.8 1.7 40
2018-02-08 19:00:00 10.9 6 Norte 26 Norte 0 1019.1 1.3 38
2018-02-08 18:00:00 12.4 7 Norte 24 Norte 0 1018.3 0.2 37
2018-02-08 17:00:00 13.6 6 Norte 23 Norte 0 1018.1 -0.6 37
2018-02-08 16:00:00 13.8 8 Norte 26 Nordeste 0 1017.8 -1.5 38
2018-02-08 15:00:00 13.6 5 Nordeste 22 Norte 0 1018.1 -1.4 39
2018-02-08 14:00:00 12.8 6 Nordeste 21 Nordeste 0 1018.7 -0.8 42
2018-02-08 13:00:00 11.9 7 Nordeste 21 Norte 0 1019.3 0.3 47
2018-02-08 12:00:00 10 8 Norte 23 Norte 0 1019.5 1.1 50
2018-02-08 11:00:00 8.4 5 Norte 21 Norte 0 1019.5 1.7 58
2018-02-08 10:00:00 6 7 Norte 21 Norte 0 1019 1.5 66
2018-02-08 09:00:00 3.8 6 Norte 20 Norte 0 1018.4 1.2 71
2018-02-08 08:00:00 3.4 7 Norte 17 Noroeste 0 1017.8 0.9 70
2018-02-08 07:00:00 3.7 5 Norte 16 Noroeste 0 1017.5 0.6 69
2018-02-08 06:00:00 3.8 4 Norte 19 Nordeste 0 1017.2 0.2 66
2018-02-08 05:00:00 4.2 4 Norte 16 Noroeste 0 1016.9 0 64
2018-02-08 04:00:00 4.1 4 Norte 11 Norte 0 1016.9 -0.1 61
2018-02-08 03:00:00 4.5 4 Norte 13 Norte 0 1017 0.3 60
2018-02-08 02:00:00 5 4 Norte 11 Norte 0 1016.9 0.7 58
2018-02-08 01:00:00 5.1 3 Norte 10 Norte 0 1017 1.5 56
2018-02-08 00:00:00 5.6 4 Norte 12 Norte 0 1016.7 1.5 55
2018-02-07 23:00:00 6.1 4 Norte 12 Norte 0 1016.2 1.3 53
2018-02-07 22:00:00 7 4 Norte 17 Norte 0 1015.5 1.4 52
2018-02-07 21:00:00 7.7 3 Norte 13 Norte 0 1015.2 1.7 51
2018-02-07 20:00:00 8.7 2 Norte 8 Norte 0 1014.9 1.9 55
2018-02-07 19:00:00 9 0 Calma 9 Nordeste 0 1014.1 1.2 52
2018-02-07 18:00:00 11.5 6 Nordeste 21 Este 0 1013.5 0.6 44
2018-02-07 17:00:00 11.4 10 Este 17 Este 0 1013 -0.3 47
2018-02-07 16:00:00 11.4 9 Este 18 Este 0 1012.9 -0.9 48
2018-02-07 15:00:00 10.8 7 Nordeste 22 Nordeste 0 1012.9 -1.5 48
2018-02-07 14:00:00 12.9 13 Este 32 Nordeste 0 1013.3 -0.8 48
2018-02-07 13:00:00 11.7 13 Nordeste 28 Nordeste 0 1013.8 -0.1 50
2018-02-07 12:00:00 11.1 12 Este 29 Nordeste 0 1014.4 1 55
2018-02-07 11:00:00 8.7 4 Nordeste 18 Norte 0 1014.1 1.4 61
2018-02-07 10:00:00 5.9 7 Norte 15 Norte 0 1013.9 1.4 68
2018-02-07 09:00:00 3.9 5 Norte 17 Noroeste 0 1013.4 0.9 76
2018-02-07 08:00:00 3.6 8 Noroeste 17 Norte 0 1012.7 0.3 76
2018-02-07 07:00:00 3.7 6 Norte 17 Norte 0 1012.5 -0.3 74
2018-02-07 06:00:00 4.3 7 Norte 19 Norte 0 1012.5 -0.6 71
2018-02-07 05:00:00 5 11 Noroeste 23 Norte 0 1012.4 -0.9 68
2018-02-07 04:00:00 5.4 10 Noroeste 22 Norte 0 1012.8 -0.7 65
2018-02-07 03:00:00 5.4 8 Noroeste 18 Norte 0 1013.1 -0.4 60
2018-02-07 02:00:00 5.5 8 Noroeste 17 Noroeste 0 1013.3 -0.3 56
2018-02-07 01:00:00 6.2 9 Noroeste 20 Noroeste 0 1013.5 0 54
2018-02-07 00:00:00 6.8 8 Noroeste 18 Noroeste 0 1013.5 0.5 52
2018-02-06 23:00:00 7.7 8 Noroeste 21 Noroeste 0 1013.6 1 49
2018-02-06 22:00:00 8.5 10 Noroeste 18 Noroeste 0 1013.5 1.6 48
2018-02-06 21:00:00 8.9 7 Noroeste 21 Norte 0 1013 1.3 44
2018-02-06 20:00:00 9.9 9 Noroeste 16 Noroeste 0 1012.6 0.9 44
2018-02-06 19:00:00 11 7 Noroeste 21 Noroeste 0 1011.9 0.1 42
2018-02-06 18:00:00 12.2 6 Norte 26 Noroeste 0 1011.7 -0.2 41
2018-02-06 17:00:00 13.2 5 Norte 29 Noroeste 0 1011.7 -0.6 42
2018-02-06 16:00:00 12.4 14 Noroeste 30 Norte 0 1011.8 -1.1 43
2018-02-06 15:00:00 12.4 14 Noroeste 27 Noroeste 0 1011.9 -1.4 46
2018-02-06 14:00:00 11.5 16 Noroeste 34 Noroeste 0 1012.3 -0.4 49
2018-02-06 13:00:00 10.3 16 Noroeste 34 Norte 0 1012.9 1 53
2018-02-06 12:00:00 9.1 17 Noroeste 36 Norte 0 1013.3 2.4 58
2018-02-06 11:00:00 8.1 13 Noroeste 57 Norte 0 1012.7 2.7 62
2018-02-06 10:00:00 6.4 10 Noroeste 30 Noroeste 0 1011.9 2.2 67
2018-02-06 09:00:00 5.3 14 Noroeste 31 Norte 0 1010.9 1.4 72
2018-02-06 08:00:00 5.1 9 Norte 28 Noroeste 0 1010 0.8 74
2018-02-06 07:00:00 5.6 12 Noroeste -- -- -- 1009.7 0.6 74
2018-02-06 06:00:00 5.5 8 Noroeste 25 Noroeste 0 1009.5 0.4 77
2018-02-06 05:00:00 6.2 12 Noroeste 22 Norte 0 1009.2 0.4 76
2018-02-06 04:00:00 6.2 7 Noroeste 19 Norte 0 1009.1 0.3 76
2018-02-06 03:00:00 6.7 5 Noroeste 27 Noroeste 0 1009.1 0.4 71
2018-02-06 02:00:00 7.7 11 Noroeste 24 Noroeste 0 1008.8 0.2 70
2018-02-06 01:00:00 7.3 4 Noroeste 22 Noroeste 0 1008.8 0.4 71
2018-02-06 00:00:00 7.9 9 Noroeste 24 Noroeste 0 1008.7 0.5 69
2018-02-05 23:00:00 7.9 7 Noroeste 14 Noroeste 0 1008.6 1.2 68
2018-02-05 22:00:00 7.7 5 Noroeste 13 Noroeste 0 1008.4 1.5 65
2018-02-05 21:00:00 9.2 6 Noroeste 14 Noroeste 0 1008.2 2.3 59
2018-02-05 20:00:00 9.4 5 Noroeste 17 Noroeste 0 1007.4 1.5 54
2018-02-05 19:00:00 10.9 3 Norte 32 Norte 0 1006.9 0.9 46
2018-02-05 18:00:00 13 12 Noroeste 25 Norte 0 1005.9 -0.6 41
2018-02-05 17:00:00 13.4 10 Noroeste 24 Norte 0 1005.9 -1.6 41
2018-02-05 16:00:00 13.8 10 Noroeste 25 Norte 0 1006 -2.4 43
2018-02-05 15:00:00 13.1 6 Noroeste 23 Norte 0 1006.5 -2.2 44
2018-02-05 14:00:00 12.8 9 Noroeste 21 Noroeste 0 1007.5 -0.9 48
2018-02-05 13:00:00 12.2 9 Noroeste 22 Norte 0 1008.4 0.4 52
2018-02-05 12:00:00 10.9 5 Norte 22 Norte 0 1008.7 1 58
2018-02-05 11:00:00 9.5 8 Noroeste 20 Noroeste 0 1008.4 1.1 65
2018-02-05 10:00:00 7.2 7 Noroeste 22 Noroeste 0 1008 0.8 76
2018-02-05 09:00:00 5.5 6 Noroeste 18 Noroeste 0 1007.7 0.4 85
2018-02-05 08:00:00 5.3 6 Noroeste 19 Noroeste 0 1007.3 0 85
2018-02-05 07:00:00 5.5 8 Noroeste 21 Noroeste 0 1007.2 -0.5 85
2018-02-05 06:00:00 5.8 7 Noroeste 21 Norte 0 1007.3 -0.6 85
2018-02-05 05:00:00 5.6 5 Noroeste 10 Norte 0 1007.3 -1 85
2018-02-05 04:00:00 5.8 6 Noroeste 20 Norte 0 1007.7 -0.8 81
2018-02-05 03:00:00 6.2 7 Norte 18 Noroeste 0 1007.9 -0.7 76
2018-02-05 02:00:00 6.3 7 Noroeste 19 Noroeste 0 1008.3 -0.2 74
2018-02-05 01:00:00 6.9 9 Noroeste 23 Noroeste 0 1008.5 -0.1 70
2018-02-05 00:00:00 7 6 Noroeste 17 Noroeste 0 1008.6 -0.1 68
2018-02-04 23:00:00 8.4 9 Noroeste 21 Norte 0 1008.5 -0.2 63
2018-02-04 22:00:00 8.3 6 Noroeste 19 Norte 0 1008.6 0.5 65
2018-02-04 21:00:00 8.3 5 Noroeste 16 Noroeste 0 1008.7 0.7 67
2018-02-04 20:00:00 9.3 7 Noroeste 13 Norte 0 1008.7 0.4 65
2018-02-04 19:00:00 9.8 3 Noroeste 12 Noroeste 0 1008.1 -0.1 61
2018-02-04 18:00:00 9.8 7 Noroeste 27 Noroeste 0 1008 -0.9 61
2018-02-04 17:00:00 10.3 12 Noroeste 24 Norte 0 1008.3 -1.5 62
2018-02-04 16:00:00 11.8 5 Nordeste 26 Noroeste 0.1 1008.2 -2.6 61
2018-02-04 15:00:00 12.3 11 Noroeste 27 Norte 0 1008.9 -2.7 59
2018-02-04 14:00:00 11.3 12 Norte 26 Noroeste 0 1009.8 -2.1 59
2018-02-04 13:00:00 10.8 13 Noroeste 28 Noroeste 0 1010.8 -1 64
2018-02-04 12:00:00 11 8 Norte 37 Noroeste 0 1011.6 -0.4 67
2018-02-04 11:00:00 10.4 12 Noroeste 27 Norte 0 1011.9 -0.5 75
2018-02-04 10:00:00 9.5 11 Noroeste 42 Norte 0 1011.8 -1.8 80
2018-02-04 09:00:00 9.6 11 Noroeste 30 Noroeste 0 1012 -2.3 83
2018-02-04 08:00:00 9.4 8 Noroeste 24 Noroeste 0 1012.4 -2.9 85
2018-02-04 07:00:00 9.5 7 Noroeste 20 Noroeste 0 1013.6 -2.4 86
2018-02-04 06:00:00 9.5 7 Noroeste 19 Noroeste 0 1014.3 -2.4 89
2018-02-04 05:00:00 9.2 3 Noroeste 18 Oeste 0 1015.3 -2.3 91
2018-02-04 04:00:00 10 4 Oeste 15 Noroeste 0 1016 -2 91
2018-02-04 03:00:00 10.1 5 Noroeste 10 Noroeste 0 1016.7 -2 92
2018-02-04 02:00:00 9.6 4 Noroeste 16 Oeste 0.4 1017.6 -1.6 88
2018-02-04 01:00:00 10.2 5 Oeste 11 Oeste 0 1018 -1.4 76
2018-02-04 00:00:00 10.2 6 Oeste 9 Oeste 0 1018.7 -1 73
2018-02-03 23:00:00 9 3 Noroeste 6 Oeste 0 1019.2 -0.8 71
2018-02-03 22:00:00 10.1 3 Noroeste 12 Noroeste 0 1019.4 -0.4 64
2018-02-03 21:00:00 9.9 5 Norte 10 Noroeste 0 1019.7 0.1 57
2018-02-03 20:00:00 10.1 4 Noroeste 8 Noroeste 0 1020 0.4 50
2018-02-03 19:00:00 12.1 4 Noroeste 17 Noroeste 0 1019.8 0 44
2018-02-03 18:00:00 13.5 7 Noroeste 18 Noroeste 0 1019.6 -0.9 40
2018-02-03 17:00:00 14.4 8 Noroeste 18 Norte 0 1019.6 -1.7 37
2018-02-03 16:00:00 15 7 Noroeste 28 Norte 0 1019.8 -2.2 38
2018-02-03 15:00:00 14.5 10 Noroeste 24 Noroeste 0 1020.5 -2.1 41
2018-02-03 14:00:00 13.5 11 Noroeste 23 Norte 0 1021.3 -1.2 47
2018-02-03 13:00:00 12.4 7 Noroeste 18 Noroeste 0 1022 -0.5 56
2018-02-03 12:00:00 10.5 7 Noroeste 21 Norte 0 1022.6 0.6 63
2018-02-03 11:00:00 9.2 8 Noroeste 21 Norte 0 1022.5 0.9 70
2018-02-03 10:00:00 6.6 9 Norte 21 Norte 0 1022.5 1.5 75
2018-02-03 09:00:00 5.5 6 Norte 19 Norte 0 1022 1.2 77
2018-02-03 08:00:00 5.3 6 Norte 22 Norte 0 1021.6 1.1 76
2018-02-03 07:00:00 5.6 11 Noroeste 21 Noroeste 0 1021 0.4 74
2018-02-03 06:00:00 5.4 7 Noroeste 16 Norte 0 1020.8 0.6 72
2018-02-03 05:00:00 6 7 Noroeste 20 Noroeste 0 1020.5 0.3 70
2018-02-03 04:00:00 5.8 7 Noroeste 16 Norte 0 1020.6 0.2 71
2018-02-03 03:00:00 6.2 4 Norte 17 Norte 0 1020.2 0.1 67
2018-02-03 02:00:00 6.7 5 Norte 16 Norte 0 1020.2 0.4 65
2018-02-03 01:00:00 7.3 3 Norte 18 Noroeste 0 1020.4 1.2 62
2018-02-03 00:00:00 7 3 Norte 14 Noroeste 0 1020.1 1.8 61
2018-02-02 23:00:00 6.1 0 Calma 9 Norte 0 1019.8 2.2 62
2018-02-02 22:00:00 5.8 0 Calma 8 Oeste 0 1019.2 2.7 58
2018-02-02 21:00:00 7.6 0 Calma 10 Oeste 0 1018.3 2.6 52
2018-02-02 20:00:00 10.1 2 Norte 14 Norte 0 1017.6 2.6 43
2018-02-02 19:00:00 11.9 5 Norte 33 Norte 0 1016.5 1.8 39
2018-02-02 18:00:00 13.3 7 Norte 36 Noroeste 0 1015.7 1 37
2018-02-02 17:00:00 13.9 12 Norte 36 Noroeste 0 1015 0 37
2018-02-02 16:00:00 14 14 Noroeste 33 Noroeste 0 1014.7 -0.8 38
2018-02-02 15:00:00 14.3 11 Noroeste 34 Norte 0 1014.7 -0.7 40
2018-02-02 14:00:00 13.5 11 Norte 37 Noroeste 0 1015 -0.3 44
2018-02-02 13:00:00 11.9 15 Noroeste 39 Noroeste 0 1015.5 0.5 49
2018-02-02 12:00:00 10.8 17 Noroeste 39 Norte 0 1015.4 1 53
2018-02-02 11:00:00 9.7 17 Noroeste 32 Noroeste 0 1015.3 1.5 61
2018-02-02 10:00:00 7.6 14 Noroeste 27 Noroeste 0 1015 1.8 70
2018-02-02 09:00:00 6.2 10 Noroeste 23 Noroeste 0 1014.4 1.7 76
2018-02-02 08:00:00 6.3 11 Noroeste 24 Noroeste 0 1013.8 1.3 74
2018-02-02 07:00:00 6.6 12 Noroeste 27 Norte 0 1013.2 0.6 74
2018-02-02 06:00:00 6.7 10 Noroeste 30 Noroeste 0 1012.7 0.4 74
2018-02-02 05:00:00 7.1 14 Noroeste 32 Norte 0 1012.5 -0.2 74
2018-02-02 04:00:00 7.6 15 Noroeste 30 Noroeste 0 1012.6 0 74
2018-02-02 03:00:00 7.9 12 Noroeste 33 Noroeste 0 1012.3 0 74
2018-02-02 02:00:00 8.6 14 Noroeste 27 Noroeste 0 1012.7 0.4 73
2018-02-02 01:00:00 9.1 10 Noroeste 30 Noroeste 0 1012.6 0.7 68
2018-02-02 00:00:00 9.6 12 Noroeste 28 Norte 0 1012.3 0.7 65
2018-02-01 23:00:00 10.3 13 Noroeste 36 Noroeste 0 1012.3 0.6 61
2018-02-01 22:00:00 10.7 10 Noroeste 37 Noroeste 0 1011.9 1 59
2018-02-01 21:00:00 11.9 17 Noroeste 35 Noroeste 0 1011.6 0.9 56
2018-02-01 20:00:00 12.8 11 Noroeste 32 Norte 0 1011.7 0.7 56
2018-02-01 19:00:00 13.2 9 Noroeste 25 Noroeste 0 1010.9 -1.1 57
2018-02-01 18:00:00 14.5 9 Noroeste 35 Noroeste 0 1010.7 -2.3 57
2018-02-01 17:00:00 15.6 14 Noroeste 31 Norte 0 1011 -2.8 56
2018-02-01 16:00:00 16.1 16 Noroeste 37 Noroeste 0 1012 -3.1 58
2018-02-01 15:00:00 15.2 18 Noroeste 40 Noroeste 0 1013 -3 61
2018-02-01 14:00:00 15.8 10 Noroeste 30 Noroeste 0 1013.8 -2.6 64
2018-02-01 13:00:00 14.5 13 Noroeste 30 Noroeste 0 1015.1 -1.3 68
2018-02-01 12:00:00 13.3 10 Noroeste 24 Norte 0 1016 -0.4 74
2018-02-01 11:00:00 12.5 10 Noroeste 19 Noroeste 0 1016.4 -0.2 76
2018-02-01 10:00:00 10.6 7 Noroeste 23 Norte 0 1016.4 0.5 82
2018-02-01 09:00:00 9 3 Norte 18 Norte 0 1016.4 0.2 88
2018-02-01 08:00:00 8.7 10 Noroeste 21 Noroeste 0 1016.6 0.4 88
2018-02-01 07:00:00 9.1 9 Noroeste 20 Norte 0 1015.9 -0.6 84
2018-02-01 06:00:00 9.7 7 Norte 19 Norte 0 1016.2 -0.2 82
2018-02-01 05:00:00 9 6 Noroeste 14 Norte 0 1016.2 -1.1 86
2018-02-01 04:00:00 9.7 5 Noroeste 16 Norte 0 1016.5 -1.2 83
2018-02-01 03:00:00 9.6 5 Noroeste 10 Noroeste 0 1016.4 -1.8 91
2018-02-01 02:00:00 9.9 5 Noroeste 9 Noroeste 0 1017.3 -0.8 91
2018-02-01 01:00:00 9.7 3 Noroeste 6 Noroeste 0 1017.7 -0.5 88
2018-02-01 00:00:00 11.1 4 Noroeste 9 Noroeste 0 1018.2 0.4 86
2018-01-31 23:00:00 11.6 3 Oeste 7 Sudoeste 0 1018.1 0.4 83
2018-01-31 22:00:00 13.1 4 Sudoeste 8 Oeste 0 1018.2 1.1 82
2018-01-31 21:00:00 13.6 3 Sudoeste 7 Sur 0 1017.8 1.1 79
2018-01-31 20:00:00 14.5 4 Sudoeste 8 Sudoeste 0 1017.7 0.8 64
2018-01-31 19:00:00 15.7 0 Calma 9 Noroeste 0 1017.1 0.2 55
2018-01-31 18:00:00 17.1 6 Norte 19 Noroeste 0 1016.7 -0.9 52
2018-01-31 17:00:00 17.9 4 Sur 23 Noroeste 0 1016.9 -2.1 51
2018-01-31 16:00:00 18.9 7 Noroeste 15 Norte 0 1016.9 -3.7 48
2018-01-31 15:00:00 18.8 3 Nordeste 19 Nordeste 0 1017.6 -3.7 49
2018-01-31 14:00:00 17.6 8 Nordeste 18 Este 0 1019 -2 52
2018-01-31 13:00:00 16.3 8 Nordeste 17 Este 0 1020.6 -0.3 59
2018-01-31 12:00:00 14.9 7 Este 19 Este 0 1021.3 0.8 64
2018-01-31 11:00:00 13.9 6 Nordeste 14 Nordeste 0 1021 0.6 69
2018-01-31 10:00:00 12.7 5 Nordeste 10 Nordeste 0 1020.9 0.8 74
2018-01-31 09:00:00 10.8 6 Este 13 Este 0 1020.5 0.6 78
2018-01-31 08:00:00 9.7 2 Norte 7 Norte 0 1020.4 0.6 79
2018-01-31 07:00:00 10.2 0 Calma 8 Nordeste 0 1020.1 -0.2 77
2018-01-31 06:00:00 10 3 Nordeste 6 Nordeste 0 1019.9 0.1 74
2018-01-31 05:00:00 10.9 0 Calma 10 Este 0 1019.8 -1 70
2018-01-31 04:00:00 12.8 4 Sur 21 Nordeste 0 1020.3 -1.1 65
2018-01-31 03:00:00 13.2 12 Nordeste 23 Este 0 1019.8 -1.8 64
2018-01-31 02:00:00 12.3 6 Nordeste 14 Este 0 1020.8 -0.9 67
2018-01-31 01:00:00 12.3 6 Nordeste 15 Nordeste 0 1021.4 0 65
2018-01-31 00:00:00 12.5 6 Nordeste 12 Este 0 1021.6 0.3 65
2018-01-30 23:00:00 13.4 6 Este 17 Este 0 1021.7 1.1 62
2018-01-30 22:00:00 13.6 9 Este 17 Este 0 1021.4 1.2 63
2018-01-30 21:00:00 13.5 8 Este 19 Este 0 1021.3 1.3 64
2018-01-30 20:00:00 14 6 Nordeste 17 Este 0 1020.6 0.6 63
2018-01-30 19:00:00 15 8 Este 20 Este 0 1020.2 0 59
2018-01-30 18:00:00 15.4 9 Este 19 Este 0 1020 -0.4 59
2018-01-30 17:00:00 16.8 9 Este 25 Este 0 1020 -1.8 53
2018-01-30 16:00:00 16.4 11 Este 27 Este 0 1020.2 -2.5 52
2018-01-30 15:00:00 17.9 9 Nordeste 23 Este 0 1020.4 -2.9 50
2018-01-30 14:00:00 16.6 12 Este 30 Este 0 1021.8 -1.6 50
2018-01-30 13:00:00 17 13 Este 31 Este 0 1022.7 -0.9 51
2018-01-30 12:00:00 16 14 Este 30 Nordeste 0 1023.3 -0.3 54
2018-01-30 11:00:00 14.6 12 Nordeste 25 Este 0 1023.4 0.1 61
2018-01-30 10:00:00 11.8 5 Nordeste 12 Nordeste 0 1023.6 0.3 73
2018-01-30 09:00:00 9.5 3 Norte 13 Nordeste 0 1023.6 0.3 77
2018-01-30 08:00:00 10.2 3 Norte 13 Nordeste 0 1023.3 -0.2 73
2018-01-30 07:00:00 11.4 4 Nordeste 13 Nordeste 0 1023.3 -0.5 71
2018-01-30 06:00:00 11.2 3 Nordeste 9 Nordeste 0 1023.3 -0.9 71
2018-01-30 05:00:00 11.7 2 Nordeste 17 Nordeste 0 1023.5 -0.9 68
2018-01-30 04:00:00 12.2 7 Nordeste 21 Nordeste 0 1023.8 -1 68
2018-01-30 03:00:00 11.7 5 Nordeste 17 Nordeste 0 1024.2 -0.6 70
2018-01-30 02:00:00 12 6 Nordeste 17 Nordeste 0 1024.4 -0.3 70
2018-01-30 01:00:00 11 6 Nordeste 14 Nordeste 0 1024.8 0.2 77
2018-01-30 00:00:00 9.8 0 Calma 9 Nordeste 0 1024.8 0.7 82
2018-01-29 23:00:00 11.2 0 Calma 17 Este 0 1024.7 1.1 80
2018-01-29 22:00:00 13.4 8 Sudeste 18 Sudeste 0 1024.6 1.3 76
2018-01-29 21:00:00 13.5 9 Este 19 Este 0 1024.1 2.1 70
2018-01-29 20:00:00 13.5 0 Calma 21 Sudeste 0 1023.6 0.9 59
2018-01-29 19:00:00 16.4 11 Este 37 Este 0 1023.3 0.3 47
2018-01-29 18:00:00 16.9 16 Este 31 Este 0 1022 -1.6 48
2018-01-29 17:00:00 17.5 9 Este 28 Este 0 1022.7 -1.8 48
2018-01-29 16:00:00 17.6 15 Este 27 Este 0 1023 -2.3 47
2018-01-29 15:00:00 16.9 16 Este 31 Este 0 1023.6 -2.3 48
2018-01-29 14:00:00 16 16 Este 35 Este 0 1024.5 -1.1 50
2018-01-29 13:00:00 15.7 16 Este 39 Este 0 1025.3 -0.2 50
2018-01-29 12:00:00 15 13 Este 34 Este 0 1025.9 0.3 52
2018-01-29 11:00:00 14.6 17 Este 34 Este 0 1025.6 0.6 52
2018-01-29 10:00:00 14 12 Nordeste 32 Este 0 1025.5 0.5 54
2018-01-29 09:00:00 13.6 15 Este 39 Nordeste 0 1025.6 0.6 54
2018-01-29 08:00:00 13.2 15 Nordeste 33 Este 0 1025 -0.3 54
2018-01-29 07:00:00 12.6 12 Nordeste 29 Nordeste 0 1025 -0.8 54
2018-01-29 06:00:00 12.3 12 Nordeste 30 Nordeste 0 1025 -1.1 54
2018-01-29 05:00:00 11.9 13 Nordeste 28 Nordeste 0 1025.3 -1.5 53
2018-01-29 04:00:00 11.6 9 Nordeste 25 Norte 0 1025.8 -1.6 55
2018-01-29 03:00:00 9.8 5 Nordeste 15 Nordeste 0 1026.1 -1.2 59
2018-01-29 02:00:00 9.4 3 Norte 13 Nordeste 0 1026.8 -1.1 62
2018-01-29 01:00:00 10.1 8 Nordeste 18 Nordeste 0 1027.4 -0.3 61
2018-01-29 00:00:00 11 10 Nordeste 22 Nordeste 0 1027.3 0 59
2018-01-28 23:00:00 10.3 7 Nordeste 27 Este 0 1027.9 1.4 61
2018-01-28 22:00:00 10.6 10 Este 19 Este 0 1027.7 2.2 63
2018-01-28 21:00:00 11.6 10 Este 39 Sudeste 0 1027.3 2.7 58
2018-01-28 20:00:00 13.4 14 Este 40 Este 0 1026.5 2 53
2018-01-28 19:00:00 14.2 12 Este 30 Este 0 1025.5 1.3 49
2018-01-28 18:00:00 14.8 13 Este 38 Este 0 1024.6 0.3 48
2018-01-28 17:00:00 15.7 12 Este 40 Sudeste 0 1024.5 -0.5 47
2018-01-28 16:00:00 16.1 20 Este 43 Este 0 1024.2 -1.2 46
2018-01-28 15:00:00 14.8 16 Este 33 Este 0 1024.3 -1.3 50
2018-01-28 14:00:00 14.4 15 Este 40 Este 0 1025 -0.8 48
2018-01-28 13:00:00 14.8 17 Este 40 Este 0 1025.4 -0.8 47
2018-01-28 12:00:00 14.4 8 Nordeste 28 Norte 0 1025.6 -0.5 48
2018-01-28 11:00:00 12.6 6 Norte 22 Norte 0 1025.8 -0.9 54
2018-01-28 10:00:00 9.2 5 Norte 22 Norte 0 1026.2 0.3 62
2018-01-28 09:00:00 6.9 6 Noroeste 18 Noroeste 0 1026.1 0 68
2018-01-28 08:00:00 6.4 4 Norte 17 Nordeste 0 1026.7 0.2 68
2018-01-28 07:00:00 6.8 7 Noroeste 22 Norte 0 1025.9 -0.6 69
2018-01-28 06:00:00 7.1 8 Noroeste 17 Noroeste 0 1026.1 -0.7 70
2018-01-28 05:00:00 6.9 5 Norte 16 Nordeste 0 1026.5 -0.6 70
2018-01-28 04:00:00 7.1 5 Norte 16 Norte 0 1026.5 -0.7 68
2018-01-28 03:00:00 7 3 Norte 9 Noroeste 0 1026.8 -0.4 68
2018-01-28 02:00:00 6.1 0 Calma 8 Nordeste 0 1027.1 -0.1 69
2018-01-28 01:00:00 7.8 4 Norte 15 Norte 0 1027.2 0.1 65
2018-01-28 00:00:00 8.6 4 Norte 14 Noroeste 0 1027.2 0.1 62
2018-01-27 23:00:00 8.2 0 Calma 9 Norte 0 1027.2 0.3 59
2018-01-27 22:00:00 8.9 3 Norte 14 Norte 0 1027.1 0.6 54
2018-01-27 21:00:00 10.2 4 Norte 15 Norte 0 1027.1 1.1 50
2018-01-27 20:00:00 11 3 Norte 13 Norte 0 1026.9 1.1 48
2018-01-27 19:00:00 12.5 5 Norte 21 Norte 0 1026.5 0.7 46
2018-01-27 18:00:00 14.2 8 Norte 26 Noroeste 0 1026 -0.6 43
2018-01-27 17:00:00 15.1 12 Noroeste 27 Noroeste 0 1025.8 -2 42
2018-01-27 16:00:00 15.4 10 Noroeste 25 Norte 0 1025.8 -3 42
2018-01-27 15:00:00 15.4 5 Norte 22 Noroeste 0 1026.6 -2.9 44
2018-01-27 14:00:00 14 8 Norte 24 Noroeste 0 1027.8 -1.8 50
2018-01-27 13:00:00 12.2 11 Noroeste 26 Norte 0 1028.8 -0.5 56
2018-01-27 12:00:00 11.2 10 Norte 22 Norte 0 1029.5 0.4 62
2018-01-27 11:00:00 9.5 9 Noroeste 22 Norte 0 1029.6 0.7 69
2018-01-27 10:00:00 7.8 8 Norte 24 Noroeste 0 1029.3 1 77
2018-01-27 09:00:00 6.8 6 Norte 24 Noroeste 0 1029.1 0.7 83
2018-01-27 08:00:00 6.6 10 Noroeste 21 Noroeste 0 1028.9 0.2 85
2018-01-27 07:00:00 6.6 6 Noroeste 19 Noroeste 0 1028.3 -0.1 83
2018-01-27 06:00:00 6.7 6 Noroeste 17 Noroeste 0 1028.4 -0.3 82
2018-01-27 05:00:00 7.2 7 Noroeste 20 Noroeste 0 1028.7 -0.2 78
2018-01-27 04:00:00 7.6 8 Norte 28 Norte 0 1028.4 -1.1 74
2018-01-27 03:00:00 8.3 13 Noroeste 31 Norte 0 1028.7 -0.4 70
2018-01-27 02:00:00 8.6 12 Noroeste 26 Noroeste 0 1028.9 -0.1 67
2018-01-27 01:00:00 9 10 Noroeste 30 Noroeste 0 1029.5 1 62
2018-01-27 00:00:00 9.6 12 Noroeste 29 Noroeste 0 1029.1 0.6 58
2018-01-26 23:00:00 10 12 Noroeste 27 Noroeste 0 1029 1.1 55
2018-01-26 22:00:00 10.7 12 Noroeste 26 Norte 0 1028.5 1 53
2018-01-26 21:00:00 11.1 10 Noroeste 25 Noroeste 0 1028.5 1.4 52
2018-01-26 20:00:00 11.6 7 Noroeste 27 Noroeste 0 1027.9 1.5 48
2018-01-26 19:00:00 13 14 Noroeste 32 Norte 0 1027.5 1.1 44
2018-01-26 18:00:00 14.1 9 Norte 37 Noroeste 0 1027.1 0.5 41
2018-01-26 17:00:00 15 13 Noroeste 35 Norte 0 1026.4 -1.3 39
2018-01-26 16:00:00 15.6 9 Norte 29 Norte 0 1026.4 -2 40
2018-01-26 15:00:00 15.3 8 Norte 33 Norte 0 1026.6 -1.9 43
2018-01-26 14:00:00 14.3 14 Noroeste 32 Noroeste 0 1027.7 -0.1 50
2018-01-26 13:00:00 13.5 9 Noroeste 28 Noroeste 0 1028.4 1.6 58
2018-01-26 12:00:00 11.9 14 Noroeste 33 Norte 0 1028.5 2.1 62
2018-01-26 11:00:00 11.5 11 Noroeste 26 Noroeste 0 1027.8 1.8 66
2018-01-26 10:00:00 10.2 0 Calma 7 Norte 0 1026.8 1.4 74
2018-01-26 09:00:00 8 4 Norte 18 Norte 0 1026.4 1.6 77
2018-01-26 08:00:00 7.8 3 Norte 29 Norte 0 1026 1.1 77
2018-01-26 07:00:00 8.2 12 Noroeste 31 Norte 0 1025.4 0.5 76
2018-01-26 06:00:00 8.1 12 Noroeste 24 Noroeste 0 1024.8 -0.1 77
2018-01-26 05:00:00 7.8 10 Noroeste 26 Noroeste 0 1024.9 0.5 76
2018-01-26 04:00:00 8.1 14 Noroeste 33 Noroeste 0 1024.9 -0.3 74
2018-01-26 03:00:00 8.6 15 Noroeste 41 Noroeste 0 1024.9 0.3 73
2018-01-26 02:00:00 8.9 15 Noroeste 32 Norte 0 1024.4 0 74
2018-01-26 01:00:00 9 0 Calma 22 Norte 0 1025.2 1.5 76
2018-01-26 00:00:00 9.6 7 Noroeste 28 Noroeste 0 1024.6 1.5 70
2018-01-25 23:00:00 10.3 8 Noroeste 24 Noroeste 0 1024.4 1.8 73
2018-01-25 22:00:00 10.5 8 Noroeste 21 Noroeste 0 1023.7 1.7 76
2018-01-25 21:00:00 10.7 6 Oeste 16 Oeste 0 1023.1 1.5 79
2018-01-25 20:00:00 11.3 4 Noroeste 18 Oeste 0.1 1022.6 1.3 78
2018-01-25 19:00:00 11.5 5 Noroeste 18 Noroeste 0 1022 0.9 91
2018-01-25 18:00:00 12.5 3 Noroeste 14 Noroeste 0 1021.6 0.3 89
2018-01-25 17:00:00 12.6 7 Noroeste 36 Noroeste 0.5 1021.3 -0.7 89
2018-01-25 16:00:00 13.3 5 Norte 30 Noroeste 0 1021.1 -2.2 95
2018-01-25 15:00:00 14.1 10 Oeste 22 Oeste 0 1021.3 -2.6 96
2018-01-25 14:00:00 14 6 Sudoeste 13 Sur 0 1022 -2.2 89
2018-01-25 13:00:00 12.4 6 Sur 13 Sur 0 1023.3 -0.7 91
2018-01-25 12:00:00 10.8 5 Sur 10 Sur 0 1023.9 -0.2 94
2018-01-25 11:00:00 9.6 0 Calma 8 Noroeste 0 1024.2 0.4 99
2018-01-25 10:00:00 8.4 3 Norte 13 Noroeste 0 1024 0.3 99
2018-01-25 09:00:00 8 4 Norte 16 Norte 0 1024.1 0.4 99
2018-01-25 08:00:00 8 6 Norte 15 Noroeste 0 1023.8 -0.1 99
2018-01-25 07:00:00 7.9 5 Norte 19 Noroeste 0 1023.7 -0.6 99
2018-01-25 06:00:00 7.7 6 Norte 18 Noroeste 0 1023.7 -0.7 99
2018-01-25 05:00:00 7.3 6 Noroeste 24 Norte 0 1023.9 -0.8 99
2018-01-25 04:00:00 7.7 9 Norte 21 Noroeste 0 1024.3 -0.6 99
2018-01-25 03:00:00 8.3 7 Norte 19 Norte 0 1024.4 -0.9 99
2018-01-25 02:00:00 9.1 9 Noroeste 21 Norte 0 1024.7 -0.8 97
2018-01-25 01:00:00 9.4 9 Noroeste 23 Noroeste 0 1024.9 -0.3 96
2018-01-25 00:00:00 9.7 10 Noroeste 21 Norte 0 1025.3 0.2 95
2018-01-24 23:00:00 10.5 4 Norte 13 Norte 0 1025.5 0.5 94
2018-01-24 22:00:00 10.6 2 Norte 8 Norte 0 1025.2 0.4 97
2018-01-24 21:00:00 11 3 Oeste 6 Oeste 0 1025.1 0.4 95
2018-01-24 20:00:00 11.6 3 Oeste 4 Oeste 0 1025 0.4 91
2018-01-24 19:00:00 12.3 0 Calma 6 Sur 0 1024.8 0 85
2018-01-24 18:00:00 14.3 0 Calma 7 Sur 0 1024.7 -0.3 80
2018-01-24 17:00:00 15 5 Sur 11 Sudoeste 0 1024.6 -1.3 76
2018-01-24 16:00:00 16.4 5 Sudoeste 14 Sudoeste 0 1024.8 -2 69
2018-01-24 15:00:00 16.7 2 Sudoeste 9 Noroeste 0 1025 -2.7 71
2018-01-24 14:00:00 13.6 4 Norte 11 Noroeste 0 1025.9 -1.7 80
2018-01-24 13:00:00 10.8 5 Norte 12 Noroeste 0 1026.8 -0.2 97
2018-01-24 12:00:00 9.4 5 Nordeste 11 Nordeste 0 1027.7 1.2 99
2018-01-24 11:00:00 8.9 4 Norte 12 Noroeste 0 1027.6 1.5 99
2018-01-24 10:00:00 8.1 4 Norte 14 Noroeste 0 1027 1.3 99
2018-01-24 09:00:00 7.6 4 Norte 12 Norte 0 1026.5 1.1 99
2018-01-24 08:00:00 7.9 4 Norte 19 Norte 0 1026.1 0.8 99
2018-01-24 07:00:00 8.1 6 Norte 15 Norte 0 1025.7 0.2 99
2018-01-24 06:00:00 8.6 5 Norte 18 Noroeste 0 1025.4 -0.4 99
2018-01-24 05:00:00 8.9 4 Noroeste 17 Noroeste 0 1025.3 -0.6 99
2018-01-24 04:00:00 9 7 Norte 20 Noroeste 0 1025.5 -0.7 99
2018-01-24 03:00:00 9.1 9 Norte 23 Norte 0 1025.8 -0.6 99
2018-01-24 02:00:00 9.4 7 Norte 21 Norte 0 1025.9 -0.6 99
2018-01-24 01:00:00 9.7 9 Noroeste 24 Noroeste 0 1026.2 0 99
2018-01-24 00:00:00 10 12 Norte 31 Noroeste 0 1026.4 0.1 98
2018-01-23 23:00:00 10.3 8 Noroeste 21 Norte 0 1026.5 0.2 97
2018-01-23 22:00:00 10.4 5 Norte 15 Noroeste 0 1026.2 0.1 97
2018-01-23 21:00:00 10.3 5 Norte 22 Noroeste 0 1026.3 0.5 94
2018-01-23 20:00:00 10.6 9 Noroeste 20 Noroeste 0 1026.3 0.9 92
2018-01-23 19:00:00 10.5 8 Noroeste 25 Noroeste 0 1026.1 0.5 88
2018-01-23 18:00:00 11.5 11 Noroeste 29 Noroeste 0 1025.8 0.3 81
2018-01-23 17:00:00 12.9 10 Norte 29 Noroeste 0 1025.4 -1.1 74
2018-01-23 16:00:00 14.3 8 Norte 22 Noroeste 0 1025.6 -1.7 70
2018-01-23 15:00:00 14.3 9 Norte 22 Norte 0 1025.5 -2.3 71
2018-01-23 14:00:00 13.2 8 Noroeste 24 Noroeste 0 1026.5 -1.5 77
2018-01-23 13:00:00 11 12 Noroeste 24 Noroeste 0 1027.3 -0.2 86
2018-01-23 12:00:00 10.3 10 Norte 25 Norte 0 1027.8 0.9 94
2018-01-23 11:00:00 8.7 8 Norte 24 Norte 0 1028 1.5 99
2018-01-23 10:00:00 8.5 9 Norte 23 Noroeste 0 1027.5 1.4 99
2018-01-23 09:00:00 8.5 9 Norte 28 Noroeste 0 1026.9 1 99
2018-01-23 08:00:00 8.9 11 Noroeste 26 Norte 0 1026.5 0.7 99
2018-01-23 07:00:00 9 8 Noroeste 32 Norte 0 1026.1 0.2 99
2018-01-23 06:00:00 9 12 Norte 26 Norte 0 1025.9 0 98
2018-01-23 05:00:00 9.7 8 Norte 22 Noroeste 0 1025.8 -0.5 97
2018-01-23 04:00:00 10.2 10 Noroeste 23 Noroeste 0 1025.9 -0.6 96
2018-01-23 03:00:00 10.6 9 Norte 30 Norte 0 1025.9 -0.9 96
2018-01-23 02:00:00 10.8 9 Noroeste 19 Noroeste 0 1026.3 -0.6 96
2018-01-23 01:00:00 11 9 Noroeste 23 Noroeste 0 1026.5 -0.3 96
2018-01-23 00:00:00 11 7 Noroeste 17 Noroeste 0 1026.8 -0.1 94
2018-01-22 23:00:00 11.3 6 Norte 16 Norte 0 1026.9 0.1 94
2018-01-22 22:00:00 11.3 3 Norte 13 Norte 0 1026.8 0.2 92
2018-01-22 21:00:00 12 3 Norte 22 Norte 0 1026.9 0.3 88
2018-01-22 20:00:00 12.8 7 Norte 17 Noroeste 0 1026.8 0.1 86
2018-01-22 19:00:00 13.2 7 Noroeste 16 Noroeste 0 1026.6 -0.2 83
2018-01-22 18:00:00 13.8 6 Noroeste 27 Noroeste 0 1026.6 -0.6 80
2018-01-22 17:00:00 13.8 12 Noroeste 27 Noroeste 0 1026.7 -1 80
2018-01-22 16:00:00 13.2 18 Noroeste 31 Noroeste 0 1026.8 -1.8 80
2018-01-22 15:00:00 13.5 14 Noroeste 26 Norte 0 1027.2 -2.1 79
2018-01-22 14:00:00 13.6 9 Norte 26 Noroeste 0 1027.7 -1.8 80
2018-01-22 13:00:00 13.7 9 Norte 23 Noroeste 0 1028.6 -0.6 83
2018-01-22 12:00:00 12 8 Norte 26 Norte 0 1029.3 0.8 92
2018-01-22 11:00:00 10.9 9 Noroeste 31 Norte 0 1029.5 1 96
2018-01-22 10:00:00 10.3 15 Noroeste 36 Norte 0 1029.2 1.3 98
2018-01-22 09:00:00 10.3 10 Norte 26 Norte 0 1028.5 0.8 98
2018-01-22 08:00:00 10.3 13 Noroeste 35 Norte 0 1028.5 0.9 97
2018-01-22 07:00:00 10.4 14 Noroeste 29 Noroeste 0 1027.9 -0.3 97
2018-01-22 06:00:00 10.9 8 Noroeste 27 Nordeste 0 1027.7 -0.8 96
2018-01-22 05:00:00 10.9 12 Noroeste 28 Norte 0 1027.6 -1.5 97
2018-01-22 04:00:00 10.6 8 Norte 27 Norte 0 1028.2 -1.1 96
2018-01-22 03:00:00 11 11 Noroeste 24 Noroeste 0 1028.5 -1.1 94
2018-01-22 02:00:00 11.4 8 Noroeste 20 Norte 0 1029.1 -0.7 93
2018-01-22 01:00:00 11.7 6 Norte 23 Noroeste 0 1029.3 -0.4 92
2018-01-22 00:00:00 11.8 10 Noroeste 20 Norte 0 1029.6 0.2 93